createdAt,value
2019-03-20T00:01:43.346Z,98878.42
2019-03-20T00:04:11.091Z,98880.57
2019-03-20T00:06:45.694Z,98883.86
2019-03-20T00:09:20.141Z,98895.08
2019-03-20T00:11:54.877Z,98893.97
2019-03-20T00:14:29.480Z,98897.23
2019-03-20T00:17:04.225Z,98907.66
2019-03-20T00:19:38.559Z,98931.17
2019-03-20T00:22:12.973Z,98951.70
2019-03-20T00:24:47.118Z,98962.62
2019-03-20T00:27:21.559Z,98959.33
2019-03-20T00:29:55.702Z,98954.41
2019-03-20T00:32:30.115Z,98972.72
2019-03-20T00:35:04.594Z,98979.82
2019-03-20T00:37:39.051Z,98976.23
2019-03-20T00:40:14.059Z,98978.41
2019-03-20T00:42:48.455Z,98971.02
2019-03-20T00:45:22.528Z,98977.86
2019-03-20T00:47:56.657Z,98960.14
2019-03-20T00:50:30.902Z,98967.14
2019-03-20T00:53:05.227Z,98976.83
2019-03-20T00:55:39.850Z,98983.80
2019-03-20T00:58:14.212Z,98986.80
2019-03-20T01:00:48.635Z,98983.20
2019-03-20T01:03:22.850Z,98977.47
2019-03-20T01:05:57.249Z,98982.39
2019-03-20T01:08:31.489Z,98979.05
2019-03-20T01:11:05.858Z,98981.48
2019-03-20T01:13:39.991Z,99000.35
2019-03-20T01:16:14.222Z,99010.45
2019-03-20T01:18:48.444Z,99015.41
2019-03-20T01:21:22.682Z,99024.70
2019-03-20T01:23:56.983Z,99032.86
2019-03-20T01:26:31.511Z,99036.20
2019-03-20T01:29:05.876Z,99027.27
2019-03-20T01:31:40.340Z,99028.17
2019-03-20T01:34:14.508Z,99025.00
2019-03-20T01:36:49.069Z,99042.84
2019-03-20T01:39:23.519Z,99048.14
2019-03-20T01:41:57.891Z,99037.78
2019-03-20T01:44:32.308Z,99047.96
2019-03-20T01:47:06.987Z,99050.70
2019-03-20T01:49:41.281Z,99063.08
2019-03-20T01:52:15.695Z,99060.08
2019-03-20T01:54:50.499Z,99061.75
2019-03-20T01:57:24.918Z,99076.86
2019-03-20T01:59:59.379Z,99082.33
2019-03-20T02:02:33.497Z,99068.08
2019-03-20T02:05:07.948Z,99074.94
2019-03-20T02:07:43.340Z,99084.27
2019-03-20T02:10:17.917Z,99093.89
2019-03-20T02:12:53.306Z,99090.34
2019-03-20T02:15:38.170Z,99093.08
2019-03-20T02:18:03.460Z,99105.97
2019-03-20T02:20:37.701Z,99108.71
2019-03-20T02:23:12.064Z,99107.59
2019-03-20T02:25:46.483Z,99119.16
2019-03-20T02:28:20.942Z,99124.04
2019-03-20T02:30:55.454Z,99113.08
2019-03-20T02:33:29.681Z,99127.08
2019-03-20T02:36:03.844Z,99130.64
2019-03-20T02:38:38.244Z,99127.89
2019-03-20T02:41:12.575Z,99134.49
2019-03-20T02:43:47.371Z,99138.34
2019-03-20T02:46:21.388Z,99132.86
2019-03-20T02:48:55.746Z,99139.11
2019-03-20T02:51:29.869Z,99142.11
2019-03-20T02:54:04.324Z,99140.19
2019-03-20T02:56:38.668Z,99137.19
2019-03-20T02:59:13.222Z,99133.59
2019-03-20T03:01:47.387Z,99133.89
2019-03-20T03:04:21.895Z,99142.88
2019-03-20T03:06:56.161Z,99153.76
2019-03-20T03:09:30.502Z,99149.61
2019-03-20T03:12:04.799Z,99151.23
2019-03-20T03:14:38.954Z,99158.88
2019-03-20T03:17:13.670Z,99161.33
2019-03-20T03:19:47.796Z,99157.22
2019-03-20T03:22:22.919Z,99167.06
2019-03-20T03:24:57.516Z,99159.09
2019-03-20T03:27:34.669Z,99164.02
2019-03-20T03:30:08.993Z,99162.39
2019-03-20T03:32:55.795Z,99162.39
2019-03-20T03:35:32.304Z,99164.80
2019-03-20T03:38:06.495Z,99170.80
2019-03-20T03:40:40.976Z,99164.20
2019-03-20T03:43:15.060Z,99161.46
2019-03-20T03:45:49.311Z,99159.83
2019-03-20T03:48:23.555Z,99159.53
2019-03-20T03:50:58.950Z,99165.77
2019-03-20T03:53:33.046Z,99173.55
2019-03-20T03:56:07.251Z,99177.39
2019-03-20T03:58:41.441Z,99186.98
2019-03-20T04:01:15.819Z,99184.55
2019-03-20T04:03:50.073Z,99190.03
2019-03-20T04:06:34.922Z,99191.95
2019-03-20T04:09:00.500Z,99186.47
2019-03-20T04:11:35.738Z,99182.53
2019-03-20T04:14:09.969Z,99189.52
2019-03-20T04:16:43.993Z,99191.53
2019-03-20T04:19:19.380Z,99193.72
2019-03-20T04:21:53.659Z,99189.90
2019-03-20T04:24:27.834Z,99190.67
2019-03-20T04:27:02.211Z,99188.78
2019-03-20T04:29:36.526Z,99195.38
2019-03-20T04:32:11.939Z,99199.28
2019-03-20T04:34:46.418Z,99197.61
2019-03-20T04:37:20.383Z,99195.44
2019-03-20T04:39:54.582Z,99197.66
2019-03-20T04:42:28.838Z,99200.05
2019-03-20T04:45:03.074Z,99202.02
2019-03-20T04:47:37.442Z,99202.84
2019-03-20T04:50:12.105Z,99204.77
2019-03-20T04:52:46.329Z,99206.13
2019-03-20T04:55:20.577Z,99206.39
2019-03-20T04:57:54.975Z,99209.66
2019-03-20T05:00:29.377Z,99217.35
2019-03-20T05:03:03.503Z,99212.94
2019-03-20T05:05:37.887Z,99215.39
2019-03-20T05:08:12.275Z,99226.91
2019-03-20T05:10:46.277Z,99226.65
2019-03-20T05:13:20.408Z,99231.87
2019-03-20T05:15:54.566Z,99226.70
2019-03-20T05:18:28.656Z,99231.51
2019-03-20T05:21:02.999Z,99233.73
2019-03-20T05:23:37.061Z,99228.77
2019-03-20T05:26:11.086Z,99217.75
2019-03-20T05:28:45.430Z,99219.94
2019-03-20T05:31:19.600Z,99214.88
2019-03-20T05:33:54.775Z,99210.67
2019-03-20T05:36:28.849Z,99210.08
2019-03-20T05:39:03.181Z,99211.43
2019-03-20T05:41:37.369Z,99201.80
2019-03-20T05:44:11.478Z,99209.42
2019-03-20T05:46:45.670Z,99205.05
2019-03-20T05:49:19.846Z,99194.86
2019-03-20T05:51:54.599Z,99195.11
2019-03-20T05:54:32.050Z,99196.18
2019-03-20T05:57:06.091Z,99194.00
2019-03-20T05:59:40.364Z,99193.40
2019-03-20T06:02:14.686Z,99183.81
2019-03-20T06:04:49.131Z,99173.95
2019-03-20T06:07:23.249Z,99178.58
2019-03-20T06:09:57.596Z,99172.28
2019-03-20T06:12:31.780Z,99176.39
2019-03-20T06:15:06.073Z,99167.36
2019-03-20T06:17:41.372Z,99162.40
2019-03-20T06:20:15.680Z,99159.39
2019-03-20T06:22:49.599Z,99153.36
2019-03-20T06:25:23.424Z,99153.36
2019-03-20T06:27:57.531Z,99147.59
2019-03-20T06:30:31.713Z,99151.69
2019-03-20T06:33:08.996Z,99145.09
2019-03-20T06:35:48.264Z,99142.66
2019-03-20T06:38:22.730Z,99141.59
2019-03-20T06:40:58.220Z,99136.36
2019-03-20T06:43:33.720Z,99127.29
2019-03-20T06:46:08.012Z,99128.66
2019-03-20T06:48:42.142Z,99116.33
2019-03-20T06:51:16.766Z,99110.33
2019-03-20T06:53:50.902Z,99100.41
2019-03-20T06:56:24.890Z,99099.05
2019-03-20T06:59:37.628Z,99093.83
2019-03-20T07:02:11.395Z,99090.31
2019-03-20T07:05:17.143Z,99086.72
2019-03-20T07:07:50.913Z,99085.87
2019-03-20T07:11:03.017Z,99086.20
2019-03-20T07:13:36.618Z,99079.57
2019-03-20T07:16:11.337Z,99070.80
2019-03-20T07:18:46.801Z,99058.48
2019-03-20T07:21:20.983Z,99045.33
2019-03-20T07:23:55.491Z,99048.37
2019-03-20T07:26:29.725Z,99036.56
2019-03-20T07:29:03.827Z,99031.93
2019-03-20T07:31:38.507Z,99029.19
2019-03-20T07:34:13.369Z,99031.41
2019-03-20T07:36:47.844Z,99013.27
2019-03-20T07:39:21.991Z,99015.49
2019-03-20T07:41:56.287Z,99009.49
2019-03-20T07:44:32.238Z,99007.27
2019-03-20T07:47:07.136Z,98999.91
2019-03-20T07:49:41.239Z,98990.31
2019-03-20T07:52:15.491Z,98991.16
2019-03-20T07:54:49.527Z,98988.42
2019-03-20T07:57:23.511Z,98986.50
2019-03-20T07:59:57.825Z,98975.55
2019-03-20T08:02:32.042Z,98966.77
2019-03-20T08:05:06.570Z,98959.11
2019-03-20T08:07:40.997Z,98955.29
2019-03-20T08:10:15.952Z,98959.92
2019-03-20T08:12:50.268Z,98942.67
2019-03-20T08:15:24.577Z,98942.96
2019-03-20T08:17:58.806Z,98936.11
2019-03-20T08:20:33.031Z,98933.37
2019-03-20T08:23:07.233Z,98932.00
2019-03-20T08:25:41.452Z,98927.34
2019-03-20T08:28:15.443Z,98926.78
2019-03-20T08:30:49.723Z,98914.20
2019-03-20T08:33:23.687Z,98912.27
2019-03-20T08:35:58.151Z,98913.38
2019-03-20T08:38:32.326Z,98914.45
2019-03-20T08:41:06.520Z,98907.35
2019-03-20T08:43:40.525Z,98902.42
2019-03-20T08:46:15.290Z,98898.31
2019-03-20T08:48:50.268Z,98895.34
2019-03-20T08:51:24.528Z,98894.27
2019-03-20T08:53:59.196Z,98891.27
2019-03-20T08:56:33.610Z,98889.90
2019-03-20T08:59:07.817Z,98881.16
2019-03-20T09:01:42.133Z,98875.13
2019-03-20T09:04:17.297Z,98880.34
2019-03-20T09:06:51.612Z,98875.38
2019-03-20T09:09:25.914Z,98859.53
2019-03-20T09:12:00.271Z,98865.53
2019-03-20T09:14:34.405Z,98865.27
2019-03-20T09:17:08.709Z,98850.20
2019-03-20T09:19:43.192Z,98848.86
2019-03-20T09:22:17.408Z,98848.56
2019-03-20T09:24:51.687Z,98833.79
2019-03-20T09:27:25.722Z,98832.42
2019-03-20T09:29:59.932Z,98828.63
2019-03-20T09:32:34.152Z,98832.80
2019-03-20T09:35:11.250Z,98828.13
2019-03-20T09:37:51.927Z,98825.94
2019-03-20T09:40:20.486Z,98826.25
2019-03-20T09:42:55.714Z,98817.50
2019-03-20T09:45:29.737Z,98815.89
2019-03-20T09:48:03.701Z,98805.20
2019-03-20T09:50:38.049Z,98804.13
2019-03-20T09:53:14.193Z,98798.11
2019-03-20T09:55:49.050Z,98794.00
2019-03-20T09:58:23.624Z,98796.19
2019-03-20T10:00:59.424Z,98786.06
2019-03-20T10:03:35.194Z,98780.33
2019-03-20T10:06:09.620Z,98790.22
2019-03-20T10:08:53.628Z,98782.57
2019-03-20T10:11:20.061Z,98778.14
2019-03-20T10:13:54.346Z,98775.69
2019-03-20T10:16:28.931Z,98779.54
2019-03-20T10:19:02.867Z,98766.94
2019-03-20T10:21:38.000Z,98766.39
2019-03-20T10:24:12.258Z,98776.58
2019-03-20T10:26:46.621Z,98765.56
2019-03-20T10:29:21.611Z,98762.28
2019-03-20T10:31:55.856Z,98762.53
2019-03-20T10:34:39.164Z,98754.88
2019-03-20T10:37:05.986Z,98759.25
2019-03-20T10:39:40.088Z,98758.73
2019-03-20T10:42:14.372Z,98752.69
2019-03-20T10:44:48.861Z,98758.20
2019-03-20T10:47:23.375Z,98758.73
2019-03-20T10:49:57.619Z,98756.02
2019-03-20T10:52:31.913Z,98754.36
2019-03-20T10:55:06.282Z,98757.69
2019-03-20T10:57:40.355Z,98757.15
2019-03-20T11:00:18.248Z,98756.91
2019-03-20T11:02:52.444Z,98760.74
2019-03-20T11:05:26.821Z,98763.52
2019-03-20T11:08:00.947Z,98762.72
2019-03-20T11:10:35.121Z,98759.69
2019-03-20T11:13:09.404Z,98755.30
2019-03-20T11:15:43.838Z,98754.73
2019-03-20T11:18:18.167Z,98758.05
2019-03-20T11:20:53.606Z,98759.42
2019-03-20T11:23:27.940Z,98764.37
2019-03-20T11:26:02.008Z,98769.05
2019-03-20T11:28:36.673Z,98761.64
2019-03-20T11:31:10.675Z,98764.93
2019-03-20T11:33:45.274Z,98762.45
2019-03-20T11:36:19.847Z,98754.52
2019-03-20T11:38:58.776Z,98757.52
2019-03-20T11:41:32.990Z,98756.70
2019-03-20T11:44:07.183Z,98766.04
2019-03-20T11:46:41.817Z,98774.81
2019-03-20T11:49:15.897Z,98769.34
2019-03-20T11:51:50.279Z,98766.05
2019-03-20T11:54:24.512Z,98769.89
2019-03-20T11:56:58.773Z,98773.48
2019-03-20T11:59:33.118Z,98770.72
2019-03-20T12:02:08.112Z,98771.29
2019-03-20T12:04:42.417Z,98770.72
2019-03-20T12:07:16.511Z,98770.74
2019-03-20T12:09:50.868Z,98775.41
2019-03-20T12:12:30.072Z,98774.04
2019-03-20T12:15:08.823Z,98769.34
2019-03-20T12:17:43.375Z,98779.25
2019-03-20T12:20:22.307Z,98775.13
2019-03-20T12:22:57.643Z,98775.67
2019-03-20T12:25:32.188Z,98776.80
2019-03-20T12:28:06.510Z,98776.78
2019-03-20T12:30:40.876Z,98781.75
2019-03-20T12:33:15.090Z,98780.91
2019-03-20T12:35:49.309Z,98778.16
2019-03-20T12:38:23.367Z,98780.91
2019-03-20T12:40:57.826Z,98789.18
2019-03-20T12:43:32.096Z,98789.18
2019-03-20T12:46:06.428Z,98793.28
2019-03-20T12:48:40.783Z,98794.40
2019-03-20T12:51:14.931Z,98794.36
2019-03-20T12:53:48.960Z,98797.12
2019-03-20T12:56:23.206Z,98793.83
2019-03-20T12:58:57.114Z,98796.30
2019-03-20T13:01:31.439Z,98805.09
2019-03-20T13:04:05.968Z,98806.75
2019-03-20T13:06:40.093Z,98805.66
2019-03-20T13:09:15.182Z,98811.97
2019-03-20T13:11:48.954Z,98805.37
2019-03-20T13:14:22.775Z,98805.63
2019-03-20T13:16:56.831Z,98808.61
2019-03-20T13:19:31.031Z,98810.81
2019-03-20T13:22:05.121Z,98811.34
2019-03-20T13:24:39.772Z,98808.84
2019-03-20T13:27:13.949Z,98817.33
2019-03-20T13:29:48.102Z,98822.52
2019-03-20T13:32:22.704Z,98819.77
2019-03-20T13:34:57.037Z,98820.84
2019-03-20T13:37:31.323Z,98827.70
2019-03-20T13:40:13.886Z,98827.42
2019-03-20T13:42:42.072Z,98834.00
2019-03-20T13:45:17.855Z,98829.88
2019-03-20T13:47:51.910Z,98829.88
2019-03-20T13:50:26.825Z,98829.63
2019-03-20T13:53:01.428Z,98840.60
2019-03-20T13:55:35.922Z,98849.66
2019-03-20T13:58:10.744Z,98852.95
2019-03-20T14:00:45.330Z,98851.30
2019-03-20T14:03:19.643Z,98853.75
2019-03-20T14:05:53.821Z,98861.72
2019-03-20T14:08:28.021Z,98865.02
2019-03-20T14:11:02.359Z,98871.88
2019-03-20T14:13:36.490Z,98880.93
2019-03-20T14:16:11.151Z,98890.53
2019-03-20T14:18:45.438Z,98892.47
2019-03-20T14:21:19.558Z,98894.45
2019-03-20T14:23:54.277Z,98900.19
2019-03-20T14:26:28.304Z,98904.17
2019-03-20T14:29:02.176Z,98909.23
2019-03-20T14:31:36.564Z,98917.77
2019-03-20T14:34:10.803Z,98923.56
2019-03-20T14:36:45.073Z,98924.93
2019-03-20T14:39:19.219Z,98930.19
2019-03-20T14:41:53.389Z,98929.06
2019-03-20T14:44:27.445Z,98943.92
2019-03-20T14:47:02.618Z,98944.68
2019-03-20T14:49:36.867Z,98942.67
2019-03-20T14:52:11.222Z,98946.77
2019-03-20T14:54:45.569Z,98950.32
2019-03-20T14:57:19.915Z,98950.58
2019-03-20T14:59:54.181Z,98952.48
2019-03-20T15:02:28.473Z,98948.87
2019-03-20T15:05:02.654Z,98962.60
2019-03-20T15:07:37.783Z,98960.68
2019-03-20T15:10:12.643Z,98969.48
2019-03-20T15:12:46.603Z,98973.30
2019-03-20T15:15:23.974Z,98973.02
2019-03-20T15:17:58.363Z,98983.47
2019-03-20T15:20:32.549Z,98975.77
2019-03-20T15:23:06.892Z,98974.09
2019-03-20T15:25:41.261Z,98977.69
2019-03-20T15:28:15.629Z,98979.06
2019-03-20T15:30:49.902Z,98983.19
2019-03-20T15:33:24.303Z,98980.97
2019-03-20T15:35:58.409Z,98985.64
2019-03-20T15:38:32.373Z,98986.72
2019-03-20T15:41:06.730Z,98993.06
2019-03-20T15:43:40.921Z,98994.96
2019-03-20T15:46:15.212Z,98993.88
2019-03-20T15:48:49.625Z,98992.50
2019-03-20T15:51:23.730Z,98993.06
2019-03-20T15:53:57.871Z,98991.40
2019-03-20T15:56:31.848Z,98993.06
2019-03-20T15:59:06.319Z,98990.03
2019-03-20T16:01:40.244Z,98994.96
2019-03-20T16:04:14.543Z,98997.18
2019-03-20T16:06:49.003Z,98997.18
2019-03-20T16:09:23.285Z,98993.88
2019-03-20T16:11:57.727Z,98992.50
2019-03-20T16:14:32.051Z,98985.64
2019-03-20T16:17:06.276Z,98985.91
2019-03-20T16:19:40.238Z,98995.81
2019-03-20T16:22:14.489Z,98996.33
2019-03-20T16:24:48.443Z,98997.18
2019-03-20T16:27:22.760Z,99001.30
2019-03-20T16:29:56.812Z,98993.59
2019-03-20T16:32:31.135Z,98997.99
2019-03-20T16:35:05.177Z,98994.20
2019-03-20T16:37:39.412Z,98994.41
2019-03-20T16:40:16.565Z,98997.12
2019-03-20T16:42:51.058Z,99013.58
2019-03-20T16:45:27.318Z,99014.95
2019-03-20T16:48:01.663Z,99005.88
2019-03-20T16:50:35.770Z,98994.06
2019-03-20T16:53:10.068Z,99011.64
2019-03-20T16:55:44.371Z,99038.02
2019-03-20T16:58:18.717Z,99034.48
2019-03-20T17:00:52.957Z,99020.44
2019-03-20T17:03:27.417Z,99031.69
2019-03-20T17:06:01.673Z,99030.61
2019-03-20T17:08:37.151Z,99009.19
2019-03-20T17:11:11.061Z,99025.67
2019-03-20T17:13:45.396Z,99033.11
2019-03-20T17:16:19.861Z,99022.34
2019-03-20T17:18:54.285Z,99037.22
2019-03-20T17:21:28.657Z,99029.50
2019-03-20T17:24:02.794Z,99032.80
2019-03-20T17:26:37.051Z,99027.30
2019-03-20T17:29:13.639Z,99029.50
2019-03-20T17:31:47.757Z,99028.95
2019-03-20T17:34:21.892Z,99036.91
2019-03-20T17:36:56.067Z,99044.59
2019-03-20T17:39:30.223Z,99051.19
2019-03-20T17:42:04.614Z,99054.27
2019-03-20T17:44:38.721Z,99054.25
2019-03-20T17:47:12.916Z,99050.39
2019-03-20T17:49:46.949Z,99049.81
2019-03-20T17:52:21.160Z,99060.53
2019-03-20T17:54:55.250Z,99063.53
2019-03-20T17:57:29.185Z,99058.86
2019-03-20T18:00:03.500Z,99049.53
2019-03-20T18:02:37.845Z,99051.16
2019-03-20T18:05:12.144Z,99045.38
2019-03-20T18:07:46.596Z,99053.91
2019-03-20T18:10:20.905Z,99058.02
2019-03-20T18:12:54.897Z,99064.59
2019-03-20T18:15:29.241Z,99066.55
2019-03-20T18:18:03.490Z,99070.91
2019-03-20T18:20:37.797Z,99063.20
2019-03-20T18:23:14.256Z,99062.09
2019-03-20T18:25:48.022Z,99060.99
2019-03-20T18:28:22.217Z,99064.03
2019-03-20T18:30:56.602Z,99055.23
2019-03-20T18:33:31.047Z,99052.46
2019-03-20T18:36:04.970Z,99057.14
2019-03-20T18:38:38.971Z,99060.97
2019-03-20T18:41:13.295Z,99059.88
2019-03-20T18:43:47.331Z,99060.70
2019-03-20T18:46:21.973Z,99063.16
2019-03-20T18:48:55.987Z,99064.27
2019-03-20T18:51:30.294Z,99071.13
2019-03-20T18:54:05.059Z,99068.66
2019-03-20T18:56:39.597Z,99063.95
2019-03-20T18:59:13.483Z,99062.06
2019-03-20T19:01:47.531Z,99060.11
2019-03-20T19:04:21.713Z,99063.16
2019-03-20T19:06:56.017Z,99060.66
2019-03-20T19:09:30.379Z,99068.31
2019-03-20T19:12:08.698Z,99064.20
2019-03-20T19:14:40.460Z,99066.13
2019-03-20T19:17:14.638Z,99061.44
2019-03-20T19:19:48.889Z,99057.31
2019-03-20T19:22:23.329Z,99047.42
2019-03-20T19:24:57.327Z,99047.13
2019-03-20T19:27:31.343Z,99041.11
2019-03-20T19:30:06.478Z,99037.26
2019-03-20T19:32:40.677Z,99052.06
2019-03-20T19:35:14.885Z,99057.01
2019-03-20T19:37:49.009Z,99056.16
2019-03-20T19:40:25.722Z,99054.78
2019-03-20T19:43:00.184Z,99050.12
2019-03-20T19:45:34.375Z,99038.81
2019-03-20T19:48:09.260Z,99043.48
2019-03-20T19:50:44.493Z,99041.83
2019-03-20T19:53:20.271Z,99041.02
2019-03-20T19:55:54.385Z,99053.05
2019-03-20T19:58:28.629Z,99056.61
2019-03-20T20:01:02.741Z,99059.98
2019-03-20T20:03:37.366Z,99062.52
2019-03-20T20:06:11.569Z,99050.06
2019-03-20T22:51:42.489Z,99010.58
2019-03-20T22:59:47.662Z,99018.45
